Winter Springs, FL

7:33 AM EDT on May 04, 2015 (GMT -0400)
Orlando International | | Change Station
CLOSE
Current Station
Airport
Location: Orlando International,
Elevation: 105 ft
Nearby Weather Stations

Elev 105 ft 28.43 °N, 81.31 °W | Updated 40 minutes ago

Overcast
Overcast
67 °F
Feels Like 67 °F
N
6
Wind Variable Wind from NNE

Today
High -- | Low -- °F
--% Chance of Precip.
Yesterday
High -- | Low -- °F
Precip. -- in
6:41 AM 8:02 PM
Full, 100% visible
Pressure 30.18 in
Visibility 10.0 miles
Clouds Few 4100 ft
Scattered Clouds 8500 ft
Mostly Cloudy 25000 ft
Dew Point 61 °F
Humidity 81%
Rainfall 0.00 in
Snow Depth Not available.
UV 0 out of 12
Pollen 7.00 out of 12
Air Quality Not available.
Flu Activity Local Activity
METAR KMCO 041053Z 02005KT 10SM FEW041 SCT085 BKN250 19/16 A3019 RMK AO2 RAE0955 SLP220 P0000 T01940161

More Conditions Fewer Conditions

Pressure 30.18 in
Visibility 10.0 miles
Clouds Few 4100 ft
Scattered Clouds 8500 ft
Mostly Cloudy 25000 ft
Dew Point 61 °F
Humidity 81%
Rainfall 0.00 in
Snow Depth Not available.
UV 0 out of 12
Pollen 7.00 out of 12
Air Quality Not available.
Flu Activity Local Activity
METAR KMCO 041053Z 02005KT 10SM FEW041 SCT085 BKN250 19/16 A3019 RMK AO2 RAE0955 SLP220 P0000 T01940161

More Conditions Fewer Conditions

Nepal has a long way to go to dig out and rebuild from a devastating earthquake. We have teamed up with several charities and organizations to make contributing to the relief effort as easy as possible.
How you can help: Portlight Strategies | Red Cross
Nowcast | as of 5:33 am EDT on May 4, 2015

A lingering long period northeast swell will producea high risk for rip currents at east central floirda beaches today. Remember to swim near a life guard and do not swim alone. Ask the beach patrol about ocean hazards when you arrive at the beach. Breezy onshore winds are also expected as the gradient tightens between an area of high pressure offshore from the Carolinas and a low pressure trough developing across the Bahamas. Isolated showers will move onshore from the Atlantic through mid day across the coastal counties. Thunderstorms are not expected today. Additional details...including graphics are available online at: http://www.Srh.NOAA.Gov/mlb/blog.Php

×

10-Day Weather Forecast

Almanac

Astronomy

May. 04, 2015 Rise Set
Actual Time
Civil Twilight
Nautical Twilight
Astronomical Twilight
Moon
Length of Visible Light
Length of Day
Tomorrow will be .
, % of the Moon is Illuminated

Today's Extremes

State Highs State Lows

Community

WunderPhotos

Upload Photos

1,818,575 photos uploaded!

WunderBlogs® & News

Nearby

Air Quality

  Air Quality AQ Index Pollutant
Not available.

Snow Depth

Station Depth Elevation

Earthquake Activity

City Distance Mag. Time & Date
Minimum magnitude displayed is 2.5.

Coastal Water Temperatures

Place Temperature

Stations

Nearby Weather Stations

Station Location Temp. Windchill Dew Point Humidity Wind Precip. Elev Updated Type